createdAt,value
2023-02-11T00:00:40.338Z,-2.10
2023-02-11T00:01:41.934Z,-1.99
2023-02-11T00:02:46.086Z,-2.00
2023-02-11T00:03:49.337Z,-2.03
2023-02-11T00:04:50.992Z,-1.97
2023-02-11T00:06:02.712Z,-1.97
2023-02-11T00:07:04.348Z,-1.93
2023-02-11T00:08:06.029Z,-1.99
2023-02-11T00:09:07.694Z,-1.94
2023-02-11T00:10:09.572Z,-1.97
2023-02-11T00:11:15.593Z,-1.93
2023-02-11T00:12:19.661Z,-1.91
2023-02-11T00:13:21.688Z,-1.87
2023-02-11T00:14:23.313Z,-1.85
2023-02-11T00:15:24.921Z,-1.85
2023-02-11T00:16:26.716Z,-1.89
2023-02-11T00:17:28.323Z,-1.82
2023-02-11T00:18:30.340Z,-1.89
2023-02-11T00:19:31.956Z,-1.93
2023-02-11T00:20:33.561Z,-1.89
2023-02-11T00:21:35.203Z,-1.85
2023-02-11T00:22:36.790Z,-1.90
2023-02-11T00:23:38.538Z,-1.86
2023-02-11T00:24:40.189Z,-2.20
2023-02-11T00:25:42.319Z,-2.15
2023-02-11T00:26:44.963Z,-2.23
2023-02-11T00:27:46.642Z,-2.37
2023-02-11T00:28:48.628Z,-2.40
2023-02-11T00:29:50.278Z,-2.37
2023-02-11T00:30:58.120Z,-2.34
2023-02-11T00:32:05.222Z,-2.27
2023-02-11T00:33:06.914Z,-2.21
2023-02-11T00:34:08.585Z,-2.24
2023-02-11T00:35:10.160Z,-2.27
2023-02-11T00:36:14.715Z,-2.26
2023-02-11T00:37:16.797Z,-2.38
2023-02-11T00:38:18.458Z,-2.41
2023-02-11T00:39:20.114Z,-2.34
2023-02-11T00:40:21.810Z,-2.38
2023-02-11T00:41:23.729Z,-2.34
2023-02-11T00:42:25.425Z,-2.36
2023-02-11T00:43:27.114Z,-2.37
2023-02-11T00:44:28.775Z,-2.36
2023-02-11T00:45:30.813Z,-2.34
2023-02-11T00:46:32.465Z,-2.31
2023-02-11T00:47:34.180Z,-2.23
2023-02-11T00:48:35.895Z,-2.20
2023-02-11T00:49:39.692Z,-2.14
2023-02-11T00:50:41.326Z,-2.15
2023-02-11T00:51:42.920Z,-2.20
2023-02-11T00:52:44.617Z,-2.37
2023-02-11T00:53:46.289Z,-2.45
2023-02-11T00:54:47.993Z,-2.38
2023-02-11T00:55:49.809Z,-2.31
2023-02-11T00:56:51.583Z,-2.36
2023-02-11T00:57:53.174Z,-2.38
2023-02-11T00:58:54.775Z,-2.36
2023-02-11T00:59:56.422Z,-2.30
2023-02-11T01:00:58.080Z,-2.29
2023-02-11T01:01:59.711Z,-2.38
2023-02-11T01:03:01.330Z,-2.36
2023-02-11T01:04:03.065Z,-2.36
2023-02-11T01:05:05.085Z,-2.41
2023-02-11T01:06:07.529Z,-2.50
2023-02-11T01:07:09.205Z,-2.48
2023-02-11T01:08:10.823Z,-2.51
2023-02-11T01:09:12.425Z,-2.50
2023-02-11T01:10:14.214Z,-2.66
2023-02-11T01:11:18.181Z,-2.61
2023-02-11T01:12:19.799Z,-2.57
2023-02-11T01:13:21.547Z,-2.52
2023-02-11T01:14:23.194Z,-2.44
2023-02-11T01:15:24.881Z,-2.44
2023-02-11T01:16:26.493Z,-2.51
2023-02-11T01:17:28.129Z,-2.44
2023-02-11T01:18:29.777Z,-2.38
2023-02-11T01:19:31.695Z,-2.36
2023-02-11T01:20:33.389Z,-2.36
2023-02-11T01:21:35.046Z,-2.33
2023-02-11T01:22:39.581Z,-2.38
2023-02-11T01:23:41.234Z,-2.41
2023-02-11T01:24:42.828Z,-2.38
2023-02-11T01:25:44.516Z,-2.37
2023-02-11T01:26:46.182Z,-2.37
2023-02-11T01:27:47.771Z,-2.34
2023-02-11T01:28:49.389Z,-2.30
2023-02-11T01:29:50.995Z,-2.30
2023-02-11T01:30:52.957Z,-2.30
2023-02-11T01:31:54.671Z,-2.30
2023-02-11T01:32:56.276Z,-2.26
2023-02-11T01:33:57.873Z,-2.30
2023-02-11T01:34:59.472Z,-2.24
2023-02-11T01:36:03.058Z,-2.29
2023-02-11T01:37:04.720Z,-2.29
2023-02-11T01:38:07.299Z,-2.37
2023-02-11T01:39:08.974Z,-2.30
2023-02-11T01:40:15.904Z,-2.31
2023-02-11T01:41:17.570Z,-2.29
2023-02-11T01:42:20.671Z,-2.23
2023-02-11T01:43:22.870Z,-2.30
2023-02-11T01:44:36.501Z,-2.30
2023-02-11T01:45:47.323Z,-2.30
2023-02-11T01:46:49.129Z,-2.45
2023-02-11T01:47:50.807Z,-2.44
2023-02-11T01:49:12.993Z,-2.45
2023-02-11T01:50:14.662Z,-2.45
2023-02-11T01:51:25.631Z,-2.44
2023-02-11T01:52:32.737Z,-2.52
2023-02-11T01:53:53.057Z,-2.64
2023-02-11T01:55:15.577Z,-2.55
2023-02-11T01:56:35.996Z,-2.60
2023-02-11T01:57:39.464Z,-2.61
2023-02-11T01:58:41.949Z,-2.55
2023-02-11T02:00:03.965Z,-2.51
2023-02-11T02:01:05.511Z,-2.51
2023-02-11T02:02:09.722Z,-2.58
2023-02-11T02:03:13.658Z,-2.60
2023-02-11T02:04:15.515Z,-2.61
2023-02-11T02:05:28.705Z,-2.57
2023-02-11T02:06:35.437Z,-2.55
2023-02-11T02:07:42.131Z,-2.54
2023-02-11T02:08:55.897Z,-2.60
2023-02-11T02:10:05.387Z,-2.72
2023-02-11T02:11:07.049Z,-2.60
2023-02-11T02:12:08.634Z,-2.58
2023-02-11T02:13:10.724Z,-2.64
2023-02-11T02:14:12.323Z,-2.66
2023-02-11T02:15:39.471Z,-2.71
2023-02-11T02:16:41.146Z,-2.78
2023-02-11T02:17:47.064Z,-2.78
2023-02-11T02:19:10.905Z,-2.62
2023-02-11T02:20:40.099Z,-2.71
2023-02-11T02:22:10.891Z,-2.69
2023-02-11T02:23:12.477Z,-2.52
2023-02-11T02:24:35.987Z,-2.41
2023-02-11T02:26:08.314Z,-2.30
2023-02-11T02:27:34.407Z,-2.24
2023-02-11T02:29:04.442Z,-2.23
2023-02-11T02:30:27.779Z,-2.27
2023-02-11T02:31:52.997Z,-2.31
2023-02-11T02:33:22.322Z,-2.41
2023-02-11T02:34:30.836Z,-2.45
2023-02-11T02:35:46.894Z,-2.58
2023-02-11T02:36:54.234Z,-2.66
2023-02-11T02:38:26.972Z,-2.71
2023-02-11T02:39:31.246Z,-2.52
2023-02-11T02:40:57.321Z,-2.41
2023-02-11T02:41:58.935Z,-2.27
2023-02-11T02:43:01.000Z,-2.15
2023-02-11T02:44:02.691Z,-2.15
2023-02-11T02:45:04.494Z,-2.14
2023-02-11T02:46:19.315Z,-2.20
2023-02-11T02:47:20.991Z,-2.33
2023-02-11T02:48:32.782Z,-2.38
2023-02-11T02:49:34.463Z,-2.45
2023-02-11T02:50:36.787Z,-2.60
2023-02-11T02:51:47.147Z,-2.75
2023-02-11T02:52:57.248Z,-2.75
2023-02-11T02:54:07.702Z,-2.75
2023-02-11T02:55:09.461Z,-2.86
2023-02-11T02:56:15.099Z,-2.69
2023-02-11T02:57:28.633Z,-2.61
2023-02-11T02:59:09.529Z,-2.51
2023-02-11T03:00:29.912Z,-2.74
2023-02-11T03:01:42.462Z,-2.54
2023-02-11T03:02:59.283Z,-2.52
2023-02-11T03:04:46.038Z,-2.44
2023-02-11T03:05:55.040Z,-2.42
2023-02-11T03:07:48.842Z,-2.36
2023-02-11T03:09:11.954Z,-2.37
2023-02-11T03:10:19.882Z,-2.31
2023-02-11T03:11:21.540Z,-2.48
2023-02-11T03:12:23.100Z,-2.41
2023-02-11T03:13:27.045Z,-2.38
2023-02-11T03:14:28.635Z,-2.41
2023-02-11T03:15:31.382Z,-2.34
2023-02-11T03:16:39.335Z,-2.34
2023-02-11T03:17:42.022Z,-2.36
2023-02-11T03:18:47.370Z,-2.51
2023-02-11T03:19:48.964Z,-2.48
2023-02-11T03:20:52.106Z,-2.57
2023-02-11T03:21:53.880Z,-2.50
2023-02-11T03:23:32.347Z,-2.51
2023-02-11T03:24:35.396Z,-2.60
2023-02-11T03:25:42.681Z,-2.75
2023-02-11T03:26:51.893Z,-2.81
2023-02-11T03:28:07.991Z,-2.85
2023-02-11T03:29:14.876Z,-2.92
2023-02-11T03:30:27.162Z,-2.88
2023-02-11T03:31:33.844Z,-2.88
2023-02-11T03:32:39.278Z,-2.78
2023-02-11T03:33:51.203Z,-2.76
2023-02-11T03:35:00.968Z,-2.74
2023-02-11T03:36:21.857Z,-2.76
2023-02-11T03:37:33.260Z,-2.71
2023-02-11T03:38:47.596Z,-2.71
2023-02-11T03:39:53.130Z,-2.78
2023-02-11T03:40:54.732Z,-2.78
2023-02-11T03:41:56.478Z,-2.62
2023-02-11T03:43:08.764Z,-2.57
2023-02-11T03:44:10.399Z,-2.52
2023-02-11T03:45:13.703Z,-2.42
2023-02-11T03:46:17.120Z,-2.38
2023-02-11T03:47:20.125Z,-2.37
2023-02-11T03:48:27.361Z,-2.33
2023-02-11T03:49:29.084Z,-2.40
2023-02-11T03:50:31.269Z,-2.42
2023-02-11T03:51:32.928Z,-2.41
2023-02-11T03:52:35.606Z,-2.48
2023-02-11T03:53:37.422Z,-2.52
2023-02-11T03:54:39.024Z,-2.57
2023-02-11T03:55:40.795Z,-2.51
2023-02-11T03:57:00.945Z,-2.50
2023-02-11T03:58:02.591Z,-2.65
2023-02-11T03:59:04.192Z,-2.57
2023-02-11T04:00:06.712Z,-2.57
2023-02-11T04:01:09.907Z,-2.51
2023-02-11T04:02:11.575Z,-2.52
2023-02-11T04:03:13.572Z,-2.52
2023-02-11T04:04:15.407Z,-2.60
2023-02-11T04:05:17.021Z,-2.71
2023-02-11T04:06:18.662Z,-2.79
2023-02-11T04:07:20.369Z,-2.84
2023-02-11T04:08:21.965Z,-2.84
2023-02-11T04:09:23.545Z,-2.79
2023-02-11T04:10:25.242Z,-2.74
2023-02-11T04:11:26.903Z,-2.74
2023-02-11T04:12:28.502Z,-2.69
2023-02-11T04:13:30.115Z,-2.78
2023-02-11T04:14:31.714Z,-2.78
2023-02-11T04:15:34.348Z,-2.88
2023-02-11T04:16:36.007Z,-2.97
2023-02-11T04:17:37.631Z,-2.92
2023-02-11T04:18:40.510Z,-2.93
2023-02-11T04:19:42.149Z,-2.91
2023-02-11T04:20:43.746Z,-2.91
2023-02-11T04:21:45.340Z,-2.88
2023-02-11T04:22:47.494Z,-2.85
2023-02-11T04:23:49.115Z,-2.85
2023-02-11T04:24:51.268Z,-2.79
2023-02-11T04:25:53.086Z,-2.81
2023-02-11T04:26:54.892Z,-2.85
2023-02-11T04:27:56.999Z,-2.86
2023-02-11T04:28:58.704Z,-2.85
2023-02-11T04:30:00.299Z,-2.85
2023-02-11T04:31:02.075Z,-2.86
2023-02-11T04:32:03.740Z,-2.88
2023-02-11T04:33:06.295Z,-2.85
2023-02-11T04:34:07.893Z,-2.91
2023-02-11T04:35:09.576Z,-2.85
2023-02-11T04:36:11.175Z,-2.88
2023-02-11T04:37:13.826Z,-2.84
2023-02-11T04:38:15.493Z,-2.97
2023-02-11T04:39:17.114Z,-2.99
2023-02-11T04:40:18.948Z,-3.09
2023-02-11T04:41:20.547Z,-3.10
2023-02-11T04:42:23.198Z,-3.06
2023-02-11T04:43:24.816Z,-3.00
2023-02-11T04:44:26.410Z,-2.91
2023-02-11T04:45:28.027Z,-2.89
2023-02-11T04:46:30.762Z,-2.91
2023-02-11T04:47:32.378Z,-2.84
2023-02-11T04:48:34.952Z,-2.79
2023-02-11T04:49:36.612Z,-2.82
2023-02-11T04:50:38.280Z,-2.75
2023-02-11T04:51:39.925Z,-2.79
2023-02-11T04:52:41.964Z,-2.82
2023-02-11T04:53:43.583Z,-2.86
2023-02-11T04:54:45.212Z,-2.95
2023-02-11T04:55:50.249Z,-2.91
2023-02-11T04:56:52.098Z,-2.97
2023-02-11T04:57:55.381Z,-3.06
2023-02-11T04:58:57.036Z,-3.05
2023-02-11T04:59:58.649Z,-3.02
2023-02-11T05:01:14.120Z,-3.06
2023-02-11T05:02:15.840Z,-2.96
2023-02-11T05:03:17.508Z,-3.00
2023-02-11T05:04:19.148Z,-2.91
2023-02-11T05:05:20.827Z,-2.78
2023-02-11T05:06:22.425Z,-2.71
2023-02-11T05:07:24.042Z,-2.62
2023-02-11T05:08:25.696Z,-2.64
2023-02-11T05:09:27.356Z,-2.61
2023-02-11T05:10:29.056Z,-2.61
2023-02-11T05:11:30.683Z,-2.74
2023-02-11T05:12:32.332Z,-2.81
2023-02-11T05:13:33.997Z,-2.88
2023-02-11T05:14:35.639Z,-2.93
2023-02-11T05:15:37.276Z,-3.00
2023-02-11T05:16:39.001Z,-2.99
2023-02-11T05:17:40.692Z,-2.95
2023-02-11T05:18:42.704Z,-2.95
2023-02-11T05:19:44.359Z,-2.93
2023-02-11T05:20:45.972Z,-2.86
2023-02-11T05:22:01.375Z,-2.91
2023-02-11T05:23:03.560Z,-2.91
2023-02-11T05:24:05.598Z,-2.97
2023-02-11T05:25:07.460Z,-2.96
2023-02-11T05:26:09.185Z,-2.97
2023-02-11T05:27:10.830Z,-3.03
2023-02-11T05:28:12.512Z,-3.07
2023-02-11T05:29:14.215Z,-3.12
2023-02-11T05:30:15.893Z,-3.15
2023-02-11T05:31:17.663Z,-3.12
2023-02-11T05:32:19.359Z,-3.13
2023-02-11T05:33:20.985Z,-3.15
2023-02-11T05:34:22.628Z,-3.12
2023-02-11T05:35:24.241Z,-3.10
2023-02-11T05:36:25.838Z,-3.10
2023-02-11T05:37:27.565Z,-3.07
2023-02-11T05:38:29.183Z,-3.16
2023-02-11T05:39:30.801Z,-3.09
2023-02-11T05:40:32.423Z,-3.05
2023-02-11T05:41:34.029Z,-3.06
2023-02-11T05:42:35.699Z,-3.03
2023-02-11T05:43:37.418Z,-2.93
2023-02-11T05:44:39.130Z,-3.03
2023-02-11T05:45:40.770Z,-2.97
2023-02-11T05:46:42.447Z,-2.96
2023-02-11T05:47:44.153Z,-2.99
2023-02-11T05:48:45.817Z,-2.96
2023-02-11T05:49:47.462Z,-2.91
2023-02-11T05:50:49.081Z,-2.91
2023-02-11T05:51:50.752Z,-2.91
2023-02-11T05:52:52.477Z,-2.97
2023-02-11T05:53:54.253Z,-2.96
2023-02-11T05:54:55.908Z,-2.92
2023-02-11T05:55:57.632Z,-2.88
2023-02-11T05:56:59.225Z,-2.85
2023-02-11T05:58:00.849Z,-2.81
2023-02-11T05:59:02.462Z,-2.76
2023-02-11T06:00:05.073Z,-2.76
2023-02-11T06:01:06.759Z,-2.74
2023-02-11T06:02:08.976Z,-2.71
2023-02-11T06:03:10.660Z,-2.74
2023-02-11T06:04:12.270Z,-2.82
2023-02-11T06:05:13.949Z,-2.78
2023-02-11T06:06:15.744Z,-2.71
2023-02-11T06:07:17.624Z,-2.82
2023-02-11T06:08:19.231Z,-2.78
2023-02-11T06:09:20.957Z,-2.64
2023-02-11T06:10:22.581Z,-2.50
2023-02-11T06:11:24.323Z,-2.38
2023-02-11T06:12:25.961Z,-2.38
2023-02-11T06:13:27.569Z,-2.48
2023-02-11T06:14:29.173Z,-2.41
2023-02-11T06:15:30.823Z,-2.50
2023-02-11T06:16:32.580Z,-2.48
2023-02-11T06:17:34.361Z,-2.41
2023-02-11T06:18:36.097Z,-2.40
2023-02-11T06:19:37.754Z,-2.33
2023-02-11T06:20:41.576Z,-2.36
2023-02-11T06:21:44.480Z,-2.29
2023-02-11T06:22:46.395Z,-2.21
2023-02-11T06:23:48.034Z,-2.27
2023-02-11T06:25:00.836Z,-2.21
2023-02-11T06:26:04.765Z,-2.11
2023-02-11T06:27:06.381Z,-2.06
2023-02-11T06:28:08.669Z,-1.97
2023-02-11T06:29:10.286Z,-1.94
2023-02-11T06:30:12.305Z,-1.75
2023-02-11T06:31:14.150Z,-1.62
2023-02-11T06:32:37.023Z,-1.55
2023-02-11T06:33:37.619Z,-1.49
2023-02-11T06:34:39.252Z,-1.52
2023-02-11T06:35:41.002Z,-1.46
2023-02-11T06:36:44.101Z,-1.54
2023-02-11T06:37:46.871Z,-1.54
2023-02-11T06:38:48.672Z,-1.58
2023-02-11T06:39:50.344Z,-1.59
2023-02-11T06:40:51.998Z,-1.59
2023-02-11T06:41:53.600Z,-1.41
2023-02-11T06:42:55.225Z,-1.28
2023-02-11T06:43:56.871Z,-1.15
2023-02-11T06:44:58.517Z,-1.04
2023-02-11T06:46:00.210Z,-0.98
2023-02-11T06:47:01.849Z,-0.93
2023-02-11T06:48:03.528Z,-0.88
2023-02-11T06:49:05.125Z,-0.93
2023-02-11T06:50:07.931Z,-0.97
2023-02-11T06:51:10.682Z,-0.88
2023-02-11T06:52:12.383Z,-0.94
2023-02-11T06:53:14.019Z,-1.03
2023-02-11T06:54:15.612Z,-0.97
2023-02-11T06:55:17.289Z,-0.79
2023-02-11T06:56:20.167Z,-0.69
2023-02-11T06:57:21.785Z,-0.66
2023-02-11T06:58:23.396Z,-0.63
2023-02-11T06:59:24.992Z,-0.62
2023-02-11T07:00:26.910Z,-0.53
2023-02-11T07:01:28.670Z,-0.48
2023-02-11T07:02:30.377Z,-0.42
2023-02-11T07:03:32.574Z,-0.48
2023-02-11T07:04:34.243Z,-0.30
2023-02-11T07:05:37.198Z,-0.46
2023-02-11T07:06:38.810Z,-0.72
2023-02-11T07:07:40.494Z,-0.52
2023-02-11T07:08:43.147Z,-0.52
2023-02-11T07:09:44.832Z,-0.43
2023-02-11T07:10:46.454Z,-0.54
2023-02-11T07:11:48.054Z,-0.50
2023-02-11T07:12:49.645Z,-0.48
2023-02-11T07:13:51.737Z,-0.40
2023-02-11T07:14:53.386Z,-0.32
2023-02-11T07:15:55.068Z,-0.37
2023-02-11T07:16:56.731Z,-0.43
2023-02-11T07:17:58.406Z,-0.49
2023-02-11T07:19:00.220Z,-0.52
2023-02-11T07:20:01.820Z,-0.56
2023-02-11T07:21:07.606Z,-0.56
2023-02-11T07:22:09.215Z,-0.59
2023-02-11T07:23:10.903Z,-0.60
2023-02-11T07:24:13.135Z,-0.56
2023-02-11T07:25:15.674Z,-0.50
2023-02-11T07:26:19.074Z,-0.50
2023-02-11T07:27:20.685Z,-0.49
2023-02-11T07:28:22.340Z,-0.40
2023-02-11T07:29:24.006Z,-0.32
2023-02-11T07:30:25.693Z,-0.22
2023-02-11T07:31:28.587Z,-0.15
2023-02-11T07:32:30.463Z,-0.13
2023-02-11T07:33:32.082Z,-0.08
2023-02-11T07:34:33.845Z,-0.03
2023-02-11T07:35:35.481Z,-0.03
2023-02-11T07:36:37.729Z,0.06
2023-02-11T07:37:39.345Z,0.08
2023-02-11T07:38:41.196Z,0.16
2023-02-11T07:39:42.794Z,0.22
2023-02-11T07:40:44.398Z,0.26
2023-02-11T07:41:47.859Z,0.29
2023-02-11T07:42:49.458Z,0.33
2023-02-11T07:43:51.207Z,0.33
2023-02-11T07:44:52.814Z,0.35
2023-02-11T07:45:54.406Z,0.35
2023-02-11T07:46:56.165Z,0.36
2023-02-11T07:47:57.882Z,0.42
2023-02-11T07:48:59.479Z,0.45
2023-02-11T07:50:01.161Z,0.48
2023-02-11T07:51:16.991Z,0.53
2023-02-11T07:52:18.676Z,0.61
2023-02-11T07:53:20.315Z,0.69
2023-02-11T07:54:22.146Z,0.63
2023-02-11T07:55:23.829Z,0.74
2023-02-11T07:56:25.510Z,0.74
2023-02-11T07:57:27.316Z,0.81
2023-02-11T07:58:28.996Z,0.93
2023-02-11T07:59:30.698Z,0.97
2023-02-11T08:00:32.327Z,1.03
2023-02-11T08:01:33.977Z,0.95
2023-02-11T08:02:35.674Z,0.95
2023-02-11T08:03:37.874Z,0.91
2023-02-11T08:04:39.496Z,0.93
2023-02-11T08:05:41.112Z,0.91
2023-02-11T08:06:43.383Z,0.87
2023-02-11T08:07:45.046Z,0.84
2023-02-11T08:08:47.175Z,0.80
2023-02-11T08:09:48.838Z,0.79
2023-02-11T08:10:50.720Z,0.67
2023-02-11T08:11:52.633Z,0.66
2023-02-11T08:12:55.212Z,0.61
2023-02-11T08:13:56.864Z,0.67
2023-02-11T08:14:58.531Z,0.77
2023-02-11T08:16:00.212Z,0.80
2023-02-11T08:17:01.889Z,0.87
2023-02-11T08:18:03.595Z,1.01
2023-02-11T08:19:07.534Z,1.14
2023-02-11T08:20:09.531Z,1.27
2023-02-11T08:21:11.208Z,1.39
2023-02-11T08:22:12.840Z,1.52
2023-02-11T08:23:14.462Z,1.65
2023-02-11T08:24:16.197Z,1.70
2023-02-11T08:25:17.857Z,1.77
2023-02-11T08:26:21.203Z,1.83
2023-02-11T08:27:22.834Z,1.86
2023-02-11T08:28:24.525Z,1.92
2023-02-11T08:29:26.333Z,1.95
2023-02-11T08:30:28.223Z,2.00
2023-02-11T08:31:37.662Z,2.06
2023-02-11T08:32:39.715Z,2.03
2023-02-11T08:33:41.748Z,2.00
2023-02-11T08:34:43.400Z,2.10
2023-02-11T08:35:45.061Z,2.13
2023-02-11T08:36:47.417Z,2.18
2023-02-11T08:37:49.054Z,2.24
2023-02-11T08:38:50.682Z,2.21
2023-02-11T08:39:52.303Z,2.27
2023-02-11T08:40:53.996Z,2.26
2023-02-11T08:41:56.748Z,2.31
2023-02-11T08:42:58.393Z,2.34
2023-02-11T08:44:00.104Z,2.36
2023-02-11T08:45:01.777Z,2.38
2023-02-11T08:46:03.693Z,2.45
2023-02-11T08:47:05.472Z,2.47
2023-02-11T08:48:07.164Z,2.37
2023-02-11T08:49:08.765Z,2.42
2023-02-11T08:50:10.497Z,2.44
2023-02-11T08:51:15.065Z,2.41
2023-02-11T08:52:16.797Z,2.47
2023-02-11T08:53:18.461Z,2.44
2023-02-11T08:54:20.128Z,2.44
2023-02-11T08:55:21.741Z,2.52
2023-02-11T08:56:23.788Z,2.55
2023-02-11T08:57:25.411Z,2.55
2023-02-11T08:58:27.030Z,2.55
2023-02-11T08:59:28.821Z,2.58
2023-02-11T09:00:30.672Z,2.62
2023-02-11T09:01:32.474Z,2.61
2023-02-11T09:02:34.266Z,2.61
2023-02-11T09:03:35.975Z,2.66
2023-02-11T09:04:37.580Z,2.75
2023-02-11T09:05:46.858Z,2.84
2023-02-11T09:06:48.493Z,2.92
2023-02-11T09:07:50.135Z,2.91
2023-02-11T09:08:54.874Z,2.96
2023-02-11T09:09:56.477Z,3.05
2023-02-11T09:10:58.124Z,3.08
2023-02-11T09:12:01.387Z,3.12
2023-02-11T09:13:03.078Z,3.16
2023-02-11T09:14:04.763Z,3.34
2023-02-11T09:15:06.742Z,3.50
2023-02-11T09:16:08.559Z,3.57
2023-02-11T09:17:10.312Z,3.67
2023-02-11T09:18:11.989Z,3.75
2023-02-11T09:19:13.711Z,3.88
2023-02-11T09:20:15.337Z,4.01
2023-02-11T09:21:17.226Z,4.05
2023-02-11T09:22:18.827Z,4.06
2023-02-11T09:23:20.477Z,4.16
2023-02-11T09:24:22.075Z,4.22
2023-02-11T09:25:23.678Z,4.31
2023-02-11T09:26:27.264Z,4.35
2023-02-11T09:27:28.871Z,4.35
2023-02-11T09:28:30.596Z,4.31
2023-02-11T09:29:32.208Z,4.28
2023-02-11T09:30:33.954Z,4.34
2023-02-11T09:31:35.869Z,4.39
2023-02-11T09:32:37.576Z,4.49
2023-02-11T09:33:39.790Z,4.56
2023-02-11T09:34:41.412Z,4.63
2023-02-11T09:35:43.076Z,4.60
2023-02-11T09:36:44.731Z,4.66
2023-02-11T09:37:46.337Z,4.65
2023-02-11T09:38:48.061Z,4.59
2023-02-11T09:39:49.674Z,4.62
2023-02-11T09:40:51.596Z,4.66
2023-02-11T09:42:08.338Z,4.60
2023-02-11T09:43:19.731Z,4.66
2023-02-11T09:44:26.356Z,4.72
2023-02-11T09:45:29.081Z,4.75
2023-02-11T09:46:33.350Z,4.70
2023-02-11T09:47:35.923Z,4.75
2023-02-11T09:48:41.712Z,4.76
2023-02-11T09:49:44.915Z,4.80
2023-02-11T09:50:57.569Z,4.90
2023-02-11T09:52:03.886Z,4.90
2023-02-11T09:53:32.545Z,5.04
2023-02-11T09:54:38.060Z,5.04
2023-02-11T09:55:42.804Z,5.16
2023-02-11T09:56:44.422Z,5.20
2023-02-11T09:57:46.033Z,5.20
2023-02-11T09:58:47.715Z,5.20
2023-02-11T09:59:49.528Z,5.18
2023-02-11T10:01:13.424Z,5.11
2023-02-11T10:02:38.144Z,5.10
2023-02-11T10:03:58.055Z,5.13
2023-02-11T10:05:53.679Z,5.07
2023-02-11T10:06:56.590Z,5.10
2023-02-11T10:08:02.653Z,5.10
2023-02-11T10:09:22.735Z,5.14
2023-02-11T10:10:45.649Z,5.21
2023-02-11T10:11:55.478Z,5.31
2023-02-11T10:13:09.391Z,5.32
2023-02-11T10:14:13.836Z,5.30
2023-02-11T10:15:24.494Z,5.21
2023-02-11T10:16:37.712Z,5.20
2023-02-11T10:18:07.702Z,5.18
2023-02-11T10:19:27.808Z,5.18
2023-02-11T10:20:36.437Z,5.17
2023-02-11T10:22:07.414Z,5.18
2023-02-11T10:23:20.973Z,5.18
2023-02-11T10:24:22.579Z,5.28
2023-02-11T10:25:34.147Z,5.31
2023-02-11T10:26:36.982Z,5.30
2023-02-11T10:27:38.587Z,5.37
2023-02-11T10:28:40.221Z,5.40
2023-02-11T10:29:46.142Z,5.47
2023-02-11T10:31:23.023Z,5.45
2023-02-11T10:32:43.110Z,5.58
2023-02-11T10:34:00.792Z,5.59
2023-02-11T10:35:04.148Z,5.62
2023-02-11T10:36:07.488Z,5.63
2023-02-11T10:37:11.487Z,5.66
2023-02-11T10:38:13.163Z,5.55
2023-02-11T10:39:23.121Z,5.61
2023-02-11T10:40:26.985Z,5.50
2023-02-11T10:41:32.981Z,5.55
2023-02-11T10:42:34.597Z,5.61
2023-02-11T10:43:36.348Z,5.56
2023-02-11T10:44:55.454Z,5.56
2023-02-11T10:45:57.243Z,5.61
2023-02-11T10:47:01.953Z,5.61
2023-02-11T10:48:06.586Z,5.61
2023-02-11T10:49:08.256Z,5.56
2023-02-11T10:50:28.047Z,5.62
2023-02-11T10:51:33.690Z,5.68
2023-02-11T10:52:35.340Z,5.76
2023-02-11T10:53:37.230Z,5.78
2023-02-11T10:54:38.826Z,5.86
2023-02-11T10:55:40.482Z,5.91
2023-02-11T10:56:55.223Z,6.03
2023-02-11T10:57:58.818Z,6.10
2023-02-11T10:59:02.049Z,6.07
2023-02-11T11:00:18.143Z,6.14
2023-02-11T11:01:24.758Z,6.26
2023-02-11T11:02:34.358Z,6.30
2023-02-11T11:03:56.224Z,6.38
2023-02-11T11:05:00.146Z,6.36
2023-02-11T11:06:02.815Z,6.34
2023-02-11T11:07:29.995Z,6.38
2023-02-11T11:08:50.612Z,6.37
2023-02-11T11:09:53.584Z,6.32
2023-02-11T11:11:06.595Z,6.30
2023-02-11T11:12:26.864Z,6.40
2023-02-11T11:13:32.283Z,6.44
2023-02-11T11:14:33.911Z,6.44
2023-02-11T11:15:35.750Z,6.48
2023-02-11T11:16:37.430Z,6.57
2023-02-11T11:17:39.053Z,6.64
2023-02-11T11:18:41.630Z,6.70
2023-02-11T11:19:43.431Z,6.81
2023-02-11T11:21:00.354Z,6.84
2023-02-11T11:22:02.194Z,6.91
2023-02-11T11:23:17.427Z,7.02
2023-02-11T11:24:33.582Z,7.08
2023-02-11T11:25:35.248Z,7.14
2023-02-11T11:26:41.818Z,7.26
2023-02-11T11:27:43.416Z,7.38
2023-02-11T11:29:09.224Z,7.49
2023-02-11T11:30:15.939Z,7.53
2023-02-11T11:31:25.313Z,7.55
2023-02-11T11:32:32.818Z,7.52
2023-02-11T11:33:34.964Z,7.55
2023-02-11T11:34:43.459Z,7.49
2023-02-11T11:35:45.144Z,7.53
2023-02-11T11:36:46.823Z,7.55
2023-02-11T11:37:53.129Z,7.62
2023-02-11T11:38:57.199Z,7.62
2023-02-11T11:40:18.042Z,7.58
2023-02-11T11:41:33.509Z,7.56
2023-02-11T11:42:36.626Z,7.60
2023-02-11T11:43:38.364Z,7.55
2023-02-11T11:44:40.035Z,7.45
2023-02-11T11:45:58.337Z,7.48
2023-02-11T11:47:11.718Z,7.56
2023-02-11T11:48:17.635Z,7.56
2023-02-11T11:49:39.924Z,7.60
2023-02-11T11:50:46.158Z,7.59
2023-02-11T11:52:26.578Z,7.65
2023-02-11T11:53:36.333Z,7.77
2023-02-11T11:54:38.006Z,7.81
2023-02-11T11:55:58.591Z,7.84
2023-02-11T11:57:04.910Z,7.90
2023-02-11T11:58:10.620Z,7.97
2023-02-11T11:59:14.945Z,7.98
2023-02-11T12:00:21.653Z,7.97
2023-02-11T12:01:41.256Z,8.01
2023-02-11T12:03:30.177Z,8.05
2023-02-11T12:04:43.088Z,8.15
2023-02-11T12:05:56.937Z,8.31
2023-02-11T12:07:30.533Z,8.42
2023-02-11T12:08:58.445Z,8.46
2023-02-11T12:10:15.052Z,8.58
2023-02-11T12:11:34.857Z,8.44
2023-02-11T12:13:04.069Z,8.37
2023-02-11T12:14:05.935Z,8.38
2023-02-11T12:15:35.384Z,8.40
2023-02-11T12:16:58.748Z,8.27
2023-02-11T12:18:24.871Z,8.18
2023-02-11T12:19:36.325Z,8.24
2023-02-11T12:20:50.619Z,8.18
2023-02-11T12:22:11.492Z,8.22
2023-02-11T12:23:34.709Z,8.11
2023-02-11T12:24:45.907Z,8.20
2023-02-11T12:25:56.466Z,8.20
2023-02-11T12:27:18.562Z,8.28
2023-02-11T12:28:24.054Z,8.22
2023-02-11T12:29:28.762Z,8.30
2023-02-11T12:30:46.620Z,8.37
2023-02-11T12:32:19.265Z,8.41
2023-02-11T12:33:51.827Z,8.41
2023-02-11T12:35:30.868Z,8.45
2023-02-11T12:36:54.870Z,8.49
2023-02-11T12:38:21.855Z,8.58
2023-02-11T12:40:11.682Z,8.52
2023-02-11T12:41:13.412Z,8.51
2023-02-11T12:42:52.311Z,8.46
2023-02-11T12:43:54.114Z,8.40
2023-02-11T12:45:11.675Z,8.44
2023-02-11T12:46:34.125Z,8.42
2023-02-11T12:47:44.619Z,8.34
2023-02-11T12:49:12.086Z,8.35
2023-02-11T12:50:41.124Z,8.35
2023-02-11T12:52:20.491Z,8.40
2023-02-11T12:53:43.904Z,8.45
2023-02-11T12:54:48.052Z,8.46
2023-02-11T12:55:52.124Z,8.51
2023-02-11T12:56:53.793Z,8.49
2023-02-11T12:57:57.118Z,8.51
2023-02-11T12:59:00.069Z,8.54
2023-02-11T13:00:05.058Z,8.42
2023-02-11T13:01:20.960Z,8.46
2023-02-11T13:02:41.090Z,8.42
2023-02-11T13:03:53.837Z,8.49
2023-02-11T13:05:02.461Z,8.46
2023-02-11T13:06:08.068Z,8.44
2023-02-11T13:07:22.400Z,8.42
2023-02-11T13:08:32.613Z,8.37
2023-02-11T13:09:40.690Z,8.38
2023-02-11T13:10:43.284Z,8.41
2023-02-11T13:11:52.146Z,8.42
2023-02-11T13:13:12.903Z,8.51
2023-02-11T13:14:19.328Z,8.48
2023-02-11T13:15:21.078Z,8.55
2023-02-11T13:16:46.055Z,8.46
2023-02-11T13:18:24.994Z,8.55
2023-02-11T13:19:35.974Z,8.62
2023-02-11T13:21:00.781Z,8.68
2023-02-11T13:22:13.426Z,8.79
2023-02-11T13:23:35.454Z,8.68
2023-02-11T13:25:17.130Z,8.63
2023-02-11T13:26:36.816Z,8.66
2023-02-11T13:27:45.875Z,8.61
2023-02-11T13:29:34.307Z,8.59
2023-02-11T13:30:36.963Z,8.63
2023-02-11T13:31:39.138Z,8.55
2023-02-11T13:32:56.442Z,8.65
2023-02-11T13:33:58.572Z,8.63
2023-02-11T13:35:00.689Z,8.63
2023-02-11T13:36:04.572Z,8.59
2023-02-11T13:37:07.868Z,8.65
2023-02-11T13:38:28.942Z,8.66
2023-02-11T13:39:30.679Z,8.69
2023-02-11T13:40:41.928Z,8.73
2023-02-11T13:41:45.587Z,8.80
2023-02-11T13:42:57.115Z,8.83
2023-02-11T13:44:05.700Z,8.82
2023-02-11T13:45:29.055Z,8.87
2023-02-11T13:46:51.060Z,8.92
2023-02-11T13:47:57.643Z,8.85
2023-02-11T13:48:59.954Z,8.82
2023-02-11T13:50:02.849Z,8.82
2023-02-11T13:51:09.161Z,8.85
2023-02-11T13:52:32.682Z,8.80
2023-02-11T13:54:03.595Z,8.75
2023-02-11T13:55:10.423Z,8.69
2023-02-11T13:56:23.384Z,8.65
2023-02-11T13:57:28.660Z,8.61
2023-02-11T13:58:30.659Z,8.61
2023-02-11T13:59:33.048Z,8.62
2023-02-11T14:00:34.861Z,8.68
2023-02-11T14:02:12.488Z,8.68
2023-02-11T14:03:32.707Z,8.68
2023-02-11T14:04:53.399Z,8.63
2023-02-11T14:06:28.876Z,8.62
2023-02-11T14:07:50.616Z,8.59
2023-02-11T14:09:34.250Z,8.59
2023-02-11T14:10:42.282Z,8.65
2023-02-11T14:11:48.245Z,8.65
2023-02-11T14:13:07.180Z,8.69
2023-02-11T14:14:26.266Z,8.68
2023-02-11T14:15:28.427Z,8.69
2023-02-11T14:16:38.297Z,8.66
2023-02-11T14:17:40.973Z,8.62
2023-02-11T14:18:45.816Z,8.59
2023-02-11T14:19:48.214Z,8.62
2023-02-11T14:20:50.818Z,8.59
2023-02-11T14:21:53.399Z,8.59
2023-02-11T14:22:55.478Z,8.54
2023-02-11T14:24:04.950Z,8.51
2023-02-11T14:25:22.418Z,8.40
2023-02-11T14:26:42.823Z,8.40
2023-02-11T14:27:56.901Z,8.40
2023-02-11T14:29:18.184Z,8.35
2023-02-11T14:30:43.348Z,8.30
2023-02-11T14:32:22.549Z,8.28